createdAt,value
2017-12-30T00:01:11.864Z,59.30
2017-12-30T00:03:39.653Z,59.90
2017-12-30T00:06:07.532Z,60.60
2017-12-30T00:08:36.092Z,61.80
2017-12-30T00:11:03.917Z,61.70
2017-12-30T00:13:31.762Z,61.60
2017-12-30T00:15:59.555Z,61.80
2017-12-30T00:18:27.433Z,62.20
2017-12-30T00:20:55.250Z,62.60
2017-12-30T00:23:23.085Z,62.90
2017-12-30T00:25:50.871Z,63.40
2017-12-30T00:28:18.950Z,64.10
2017-12-30T00:30:46.824Z,65.40
2017-12-30T00:33:14.707Z,65.60
2017-12-30T00:35:42.662Z,66.10
2017-12-30T00:38:10.536Z,66.70
2017-12-30T00:40:39.147Z,66.90
2017-12-30T00:43:06.958Z,66.90
2017-12-30T00:45:34.794Z,66.80
2017-12-30T00:48:02.612Z,67.20
2017-12-30T00:50:31.254Z,67.00
2017-12-30T00:52:59.087Z,67.00
2017-12-30T00:55:26.921Z,66.90
2017-12-30T00:57:54.810Z,67.50
2017-12-30T01:00:22.617Z,66.70
2017-12-30T01:02:50.443Z,66.60
2017-12-30T01:05:18.248Z,66.60
2017-12-30T01:07:46.061Z,66.60
2017-12-30T01:10:13.884Z,66.90
2017-12-30T01:12:41.690Z,66.80
2017-12-30T01:15:10.269Z,66.90
2017-12-30T01:17:38.099Z,66.90
2017-12-30T01:20:05.939Z,66.70
2017-12-30T01:22:33.733Z,66.40
2017-12-30T01:25:01.561Z,66.20
2017-12-30T01:27:29.426Z,66.10
2017-12-30T01:29:57.242Z,66.10
2017-12-30T01:32:25.057Z,65.80
2017-12-30T01:34:52.864Z,65.50
2017-12-30T01:37:20.650Z,65.40
2017-12-30T01:39:48.503Z,65.30
2017-12-30T01:42:16.364Z,65.10
2017-12-30T01:44:44.182Z,64.90
2017-12-30T01:47:12.118Z,65.40
2017-12-30T01:49:40.707Z,64.60
2017-12-30T01:52:09.286Z,64.70
2017-12-30T01:54:37.181Z,64.70
2017-12-30T01:57:05.121Z,64.70
2017-12-30T01:59:33.740Z,64.70
2017-12-30T02:02:01.584Z,64.60
2017-12-30T02:04:29.448Z,64.50
2017-12-30T02:06:57.312Z,64.30
2017-12-30T02:09:25.107Z,64.30
2017-12-30T02:11:52.930Z,64.20
2017-12-30T02:14:21.505Z,64.10
2017-12-30T02:16:50.171Z,63.90
2017-12-30T02:19:17.990Z,64.00
2017-12-30T02:21:45.856Z,63.70
2017-12-30T02:24:13.705Z,64.10
2017-12-30T02:26:41.571Z,64.10
2017-12-30T02:29:09.391Z,64.90
2017-12-30T02:31:37.208Z,64.20
2017-12-30T02:34:05.001Z,64.20
2017-12-30T02:36:32.900Z,64.10
2017-12-30T02:39:00.696Z,64.30
2017-12-30T02:41:28.575Z,64.40
2017-12-30T02:43:56.467Z,64.40
2017-12-30T02:46:24.295Z,64.40
2017-12-30T02:48:52.125Z,64.60
2017-12-30T02:51:19.935Z,64.40
2017-12-30T02:53:47.715Z,64.20
2017-12-30T02:56:15.508Z,64.10
2017-12-30T02:58:43.309Z,64.00
2017-12-30T03:01:11.100Z,64.00
2017-12-30T03:03:38.913Z,63.80
2017-12-30T03:06:06.718Z,63.60
2017-12-30T03:08:34.519Z,63.60
2017-12-30T03:11:02.369Z,63.70
2017-12-30T03:13:30.223Z,63.80
2017-12-30T03:15:58.100Z,63.80
2017-12-30T03:18:25.908Z,63.80
2017-12-30T03:20:53.772Z,63.90
2017-12-30T03:23:21.606Z,64.10
2017-12-30T03:25:49.464Z,64.00
2017-12-30T03:28:17.317Z,63.90
2017-12-30T03:30:45.274Z,64.00
2017-12-30T03:33:13.200Z,64.00
2017-12-30T03:35:40.987Z,64.10
2017-12-30T03:38:09.584Z,64.10
2017-12-30T03:40:38.171Z,64.80
2017-12-30T03:43:05.951Z,64.10
2017-12-30T03:45:33.757Z,64.10
2017-12-30T03:48:01.577Z,64.10
2017-12-30T03:50:29.490Z,64.00
2017-12-30T03:52:57.291Z,64.30
2017-12-30T03:55:25.112Z,64.30
2017-12-30T03:57:52.990Z,64.20
2017-12-30T04:00:20.803Z,64.30
2017-12-30T04:02:48.623Z,64.20
2017-12-30T04:05:16.499Z,64.00
2017-12-30T04:07:44.324Z,63.70
2017-12-30T04:10:12.107Z,63.40
2017-12-30T04:12:39.946Z,63.30
2017-12-30T04:15:07.894Z,63.40
2017-12-30T04:17:35.701Z,59.70
2017-12-30T04:20:03.577Z,59.20
2017-12-30T04:22:31.424Z,60.40
2017-12-30T04:24:59.215Z,61.00
2017-12-30T04:27:27.071Z,61.30
2017-12-30T04:29:54.963Z,61.10
2017-12-30T04:32:22.802Z,60.60
2017-12-30T04:34:50.612Z,59.80
2017-12-30T04:37:18.434Z,59.80
2017-12-30T04:39:46.564Z,59.80
2017-12-30T04:42:14.490Z,59.70
2017-12-30T04:44:42.291Z,59.70
2017-12-30T04:47:10.218Z,59.40
2017-12-30T04:49:38.022Z,59.50
2017-12-30T04:52:05.908Z,59.40
2017-12-30T04:54:33.804Z,59.40
2017-12-30T04:57:01.656Z,59.40
2017-12-30T04:59:29.551Z,59.30
2017-12-30T05:01:57.431Z,59.20
2017-12-30T05:04:25.311Z,59.20
2017-12-30T05:06:53.118Z,58.90
2017-12-30T05:09:20.916Z,58.90
2017-12-30T05:11:48.723Z,58.80
2017-12-30T05:14:16.611Z,58.90
2017-12-30T05:16:44.428Z,58.80
2017-12-30T05:19:12.223Z,58.80
2017-12-30T05:21:40.035Z,59.10
2017-12-30T05:24:07.824Z,59.40
2017-12-30T05:26:35.650Z,59.90
2017-12-30T05:29:03.543Z,60.20
2017-12-30T05:31:31.371Z,60.30
2017-12-30T05:33:59.222Z,60.70
2017-12-30T05:36:26.990Z,61.20
2017-12-30T05:38:54.792Z,61.20
2017-12-30T05:41:22.750Z,61.20
2017-12-30T05:43:50.689Z,61.30
2017-12-30T05:46:18.476Z,61.30
2017-12-30T05:48:46.363Z,61.00
2017-12-30T05:51:14.169Z,60.80
2017-12-30T05:53:41.979Z,60.50
2017-12-30T05:56:09.754Z,60.50
2017-12-30T05:58:37.536Z,60.60
2017-12-30T06:01:05.332Z,61.20
2017-12-30T06:03:33.218Z,60.90
2017-12-30T06:06:01.086Z,61.30
2017-12-30T06:08:29.053Z,61.60
2017-12-30T06:10:56.879Z,61.90
2017-12-30T06:13:25.453Z,62.30
2017-12-30T06:15:53.248Z,62.20
2017-12-30T06:18:21.123Z,62.60
2017-12-30T06:20:49.433Z,62.80
2017-12-30T06:23:18.446Z,62.90
2017-12-30T06:25:47.055Z,63.20
2017-12-30T06:28:14.894Z,63.10
2017-12-30T06:30:43.312Z,63.30
2017-12-30T06:33:11.135Z,63.70
2017-12-30T06:35:39.024Z,63.80
2017-12-30T06:38:06.855Z,64.30
2017-12-30T06:40:34.722Z,64.60
2017-12-30T06:43:02.537Z,64.60
2017-12-30T06:45:30.356Z,64.90
2017-12-30T06:47:58.165Z,65.20
2017-12-30T06:50:25.980Z,66.10
2017-12-30T06:52:53.802Z,66.30
2017-12-30T06:55:21.875Z,66.60
2017-12-30T06:57:49.706Z,66.70
2017-12-30T07:00:18.313Z,67.90
2017-12-30T07:02:46.113Z,67.20
2017-12-30T07:05:14.020Z,67.20
2017-12-30T07:07:41.857Z,66.90
2017-12-30T07:10:09.706Z,67.00
2017-12-30T07:12:37.529Z,67.10
2017-12-30T07:15:05.375Z,67.20
2017-12-30T07:17:33.232Z,67.10
2017-12-30T07:20:01.092Z,67.10
2017-12-30T07:22:28.976Z,66.70
2017-12-30T07:24:56.844Z,66.30
2017-12-30T07:27:24.647Z,66.10
2017-12-30T07:29:52.518Z,65.80
2017-12-30T07:32:20.389Z,65.70
2017-12-30T07:34:48.261Z,65.80
2017-12-30T07:37:16.945Z,65.90
2017-12-30T07:39:44.827Z,65.90
2017-12-30T07:42:12.731Z,65.90
2017-12-30T07:44:40.592Z,65.90
2017-12-30T07:47:08.418Z,65.90
2017-12-30T07:49:36.203Z,65.70
2017-12-30T07:52:04.055Z,65.80
2017-12-30T07:54:31.872Z,65.70
2017-12-30T07:56:59.708Z,65.70
2017-12-30T07:59:27.579Z,65.80
2017-12-30T08:01:55.427Z,65.90
2017-12-30T08:04:23.284Z,65.80
2017-12-30T08:06:51.183Z,65.70
2017-12-30T08:09:19.829Z,65.40
2017-12-30T08:11:47.651Z,65.40
2017-12-30T08:14:16.231Z,65.80
2017-12-30T08:16:44.853Z,66.00
2017-12-30T08:19:13.485Z,66.30
2017-12-30T08:21:41.325Z,66.30
2017-12-30T08:24:09.226Z,66.20
2017-12-30T08:26:37.063Z,66.40
2017-12-30T08:29:04.853Z,66.70
2017-12-30T08:31:33.449Z,66.80
2017-12-30T08:34:02.037Z,67.00
2017-12-30T08:36:30.598Z,67.10
2017-12-30T08:38:58.461Z,67.30
2017-12-30T08:41:26.332Z,67.80
2017-12-30T08:43:54.968Z,68.40
2017-12-30T08:46:22.796Z,68.40
2017-12-30T08:48:50.633Z,68.50
2017-12-30T08:51:18.518Z,68.60
2017-12-30T08:53:46.366Z,69.10
2017-12-30T08:56:14.260Z,69.40
2017-12-30T08:58:42.221Z,68.90
2017-12-30T09:01:10.821Z,68.40
2017-12-30T09:03:38.684Z,68.40
2017-12-30T09:06:06.509Z,68.00
2017-12-30T09:08:34.321Z,68.00
2017-12-30T09:11:02.199Z,67.70
2017-12-30T09:13:30.146Z,67.70
2017-12-30T09:15:57.991Z,67.70
2017-12-30T09:18:26.644Z,68.20
2017-12-30T09:20:54.446Z,68.20
2017-12-30T09:23:22.344Z,68.20
2017-12-30T09:25:50.247Z,68.40
2017-12-30T09:28:18.096Z,68.60
2017-12-30T09:30:45.929Z,68.90
2017-12-30T09:33:13.768Z,69.30
2017-12-30T09:35:41.652Z,69.20
2017-12-30T09:38:09.500Z,69.50
2017-12-30T09:40:37.325Z,69.40
2017-12-30T09:43:05.200Z,69.60
2017-12-30T09:45:33.008Z,69.50
2017-12-30T09:48:01.600Z,70.60
2017-12-30T09:50:30.266Z,70.70
2017-12-30T09:52:58.884Z,71.00
2017-12-30T09:55:26.711Z,71.00
2017-12-30T09:57:54.530Z,70.80
2017-12-30T10:00:22.388Z,71.20
2017-12-30T10:02:50.291Z,71.90
2017-12-30T10:05:18.125Z,72.10
2017-12-30T10:07:46.020Z,71.20
2017-12-30T10:10:13.891Z,71.30
2017-12-30T10:12:41.713Z,70.90
2017-12-30T10:15:09.555Z,71.50
2017-12-30T10:17:38.183Z,72.20
2017-12-30T10:20:06.053Z,72.10
2017-12-30T10:22:34.038Z,71.80
2017-12-30T10:25:01.893Z,71.70
2017-12-30T10:27:30.455Z,71.20
2017-12-30T10:29:58.291Z,71.20
2017-12-30T10:32:26.163Z,71.50
2017-12-30T10:34:54.776Z,71.00
2017-12-30T10:37:22.629Z,71.00
2017-12-30T10:39:56.390Z,71.00
2017-12-30T10:42:28.388Z,71.10
2017-12-30T10:44:56.249Z,71.10
2017-12-30T10:47:24.220Z,70.70
2017-12-30T10:49:52.519Z,70.70
2017-12-30T10:52:27.987Z,71.10
2017-12-30T10:54:56.251Z,71.50
2017-12-30T10:57:24.074Z,71.90
2017-12-30T10:59:51.867Z,71.80
2017-12-30T11:02:19.763Z,72.10
2017-12-30T11:04:47.639Z,72.00
2017-12-30T11:07:15.514Z,71.60
2017-12-30T11:09:43.443Z,71.30
2017-12-30T11:12:11.346Z,71.10
2017-12-30T11:14:39.151Z,71.20
2017-12-30T11:17:07.498Z,71.10
2017-12-30T11:19:36.075Z,71.00
2017-12-30T11:22:03.902Z,70.90
2017-12-30T11:24:31.712Z,70.40
2017-12-30T11:26:59.531Z,70.00
2017-12-30T11:29:27.333Z,70.90
2017-12-30T11:31:55.335Z,69.60
2017-12-30T11:34:23.964Z,68.90
2017-12-30T11:36:51.780Z,68.90
2017-12-30T11:39:20.363Z,68.70
2017-12-30T11:41:48.992Z,69.00
2017-12-30T11:44:16.872Z,69.00
2017-12-30T11:46:44.711Z,69.10
2017-12-30T11:49:12.541Z,69.20
2017-12-30T11:51:41.139Z,69.20
2017-12-30T11:54:08.957Z,69.20
2017-12-30T11:56:36.802Z,69.00
2017-12-30T11:59:05.259Z,69.10
2017-12-30T12:01:33.060Z,68.80
2017-12-30T12:04:00.881Z,69.00
2017-12-30T12:06:28.668Z,69.10
2017-12-30T12:08:56.695Z,69.30
2017-12-30T12:11:24.587Z,70.00
2017-12-30T12:13:52.499Z,70.10
2017-12-30T12:16:20.283Z,70.70
2017-12-30T12:18:48.217Z,70.80
2017-12-30T12:21:16.104Z,70.80
2017-12-30T12:23:43.945Z,71.00
2017-12-30T12:26:11.820Z,70.80
2017-12-30T12:28:39.736Z,70.90
2017-12-30T12:31:09.400Z,70.70
2017-12-30T12:33:37.277Z,70.70
2017-12-30T12:36:05.106Z,70.90
2017-12-30T12:38:32.984Z,70.70
2017-12-30T12:41:02.664Z,70.90
2017-12-30T12:43:30.703Z,70.50
2017-12-30T12:45:58.570Z,70.40
2017-12-30T12:48:26.471Z,70.40
2017-12-30T12:50:54.613Z,71.00
2017-12-30T12:53:22.507Z,70.30
2017-12-30T12:55:50.331Z,70.30
2017-12-30T12:58:18.346Z,70.40
2017-12-30T13:00:46.726Z,70.20
2017-12-30T13:03:14.640Z,70.10
2017-12-30T13:05:42.476Z,70.30
2017-12-30T13:08:10.301Z,70.00
2017-12-30T13:10:38.867Z,70.30
2017-12-30T13:13:06.680Z,70.30
2017-12-30T13:15:34.561Z,70.80
2017-12-30T13:18:02.368Z,70.60
2017-12-30T13:20:30.231Z,70.90
2017-12-30T13:22:58.162Z,70.80
2017-12-30T13:25:26.009Z,70.30
2017-12-30T13:27:53.941Z,70.20
2017-12-30T13:30:22.495Z,70.70
2017-12-30T13:32:50.301Z,70.60
2017-12-30T13:35:18.130Z,70.70
2017-12-30T13:37:45.915Z,71.20
2017-12-30T13:40:13.700Z,71.50
2017-12-30T13:42:42.330Z,72.20
2017-12-30T13:45:10.190Z,72.20
2017-12-30T13:47:38.106Z,73.30
2017-12-30T13:50:06.731Z,74.40
2017-12-30T13:52:34.552Z,74.40
2017-12-30T13:55:02.427Z,75.10
2017-12-30T13:57:30.293Z,75.30
2017-12-30T13:59:58.121Z,76.00
2017-12-30T14:02:26.891Z,76.30
2017-12-30T14:04:54.737Z,76.40
2017-12-30T14:07:22.552Z,76.40
2017-12-30T14:09:50.354Z,76.70
2017-12-30T14:12:18.208Z,76.50
2017-12-30T14:14:46.105Z,76.70
2017-12-30T14:17:14.771Z,76.50
2017-12-30T14:19:42.647Z,76.50
2017-12-30T14:22:10.544Z,76.60
2017-12-30T14:24:39.931Z,76.90
2017-12-30T14:27:07.829Z,76.70
2017-12-30T14:29:35.722Z,76.50
2017-12-30T14:32:04.307Z,76.60
2017-12-30T14:34:32.855Z,76.60
2017-12-30T14:37:00.741Z,76.60
2017-12-30T14:39:29.108Z,76.50
2017-12-30T14:41:56.900Z,76.30
2017-12-30T14:44:24.833Z,76.40
2017-12-30T14:46:55.395Z,76.20
2017-12-30T14:49:25.157Z,76.30
2017-12-30T14:51:53.041Z,76.20
2017-12-30T14:54:20.842Z,76.10
2017-12-30T14:56:48.749Z,76.00
2017-12-30T14:59:17.261Z,75.80
2017-12-30T15:01:45.094Z,75.70
2017-12-30T15:04:13.088Z,75.50
2017-12-30T15:06:41.035Z,75.40
2017-12-30T15:09:08.847Z,75.50
2017-12-30T15:11:37.435Z,75.50
2017-12-30T15:14:07.002Z,75.40
2017-12-30T15:16:34.908Z,75.40
2017-12-30T15:19:03.476Z,75.30
2017-12-30T15:21:31.355Z,75.30
2017-12-30T15:24:00.103Z,75.40
2017-12-30T15:26:27.941Z,75.40
2017-12-30T15:28:55.964Z,75.20
2017-12-30T15:31:23.790Z,75.40
2017-12-30T15:33:52.431Z,75.60
2017-12-30T15:36:20.293Z,75.60
2017-12-30T15:38:48.132Z,75.70
2017-12-30T15:41:15.951Z,75.50
2017-12-30T15:43:43.852Z,75.30
2017-12-30T15:46:11.663Z,75.80
2017-12-30T15:48:39.496Z,76.10
2017-12-30T15:51:08.364Z,75.50
2017-12-30T15:53:36.253Z,75.50
2017-12-30T15:56:04.072Z,75.30
2017-12-30T15:58:31.925Z,75.50
2017-12-30T16:00:59.784Z,75.50
2017-12-30T16:03:28.400Z,75.50
2017-12-30T16:05:56.235Z,75.50
2017-12-30T16:08:24.068Z,75.60
2017-12-30T16:10:52.709Z,75.60
2017-12-30T16:13:22.871Z,75.80
2017-12-30T16:15:50.739Z,76.00
2017-12-30T16:18:18.519Z,76.30
2017-12-30T16:20:46.303Z,76.70
2017-12-30T16:23:14.147Z,76.80
2017-12-30T16:25:42.049Z,76.90
2017-12-30T16:28:09.852Z,77.30
2017-12-30T16:30:37.655Z,77.50
2017-12-30T16:33:05.500Z,77.30
2017-12-30T16:35:33.366Z,77.30
2017-12-30T16:38:01.248Z,77.10
2017-12-30T16:40:29.844Z,76.90
2017-12-30T16:42:57.759Z,76.90
2017-12-30T16:45:25.633Z,76.60
2017-12-30T16:47:53.452Z,76.30
2017-12-30T17:03:42.150Z,78.20
2017-12-30T17:06:10.066Z,78.20
2017-12-30T17:08:37.847Z,78.60
2017-12-30T17:11:05.668Z,77.80
2017-12-30T17:13:33.511Z,78.10
2017-12-30T17:16:01.304Z,77.10
2017-12-30T17:18:29.119Z,77.00
2017-12-30T17:20:57.014Z,76.80
2017-12-30T17:23:24.835Z,76.60
2017-12-30T17:25:52.629Z,76.20
2017-12-30T17:28:20.617Z,76.20
2017-12-30T17:30:48.460Z,76.30
2017-12-30T17:33:16.287Z,75.70
2017-12-30T17:35:44.202Z,75.40
2017-12-30T17:38:12.851Z,75.40
2017-12-30T17:40:40.710Z,75.30
2017-12-30T17:43:08.544Z,75.40
2017-12-30T17:45:36.404Z,75.40
2017-12-30T17:48:05.116Z,75.80
2017-12-30T17:50:32.980Z,75.10
2017-12-30T17:53:01.596Z,74.60
2017-12-30T17:55:29.499Z,74.60
2017-12-30T17:57:57.440Z,74.70
2017-12-30T18:00:25.260Z,74.70
2017-12-30T18:02:53.989Z,75.00
2017-12-30T18:05:21.909Z,75.00
2017-12-30T18:07:50.645Z,75.00
2017-12-30T18:10:18.495Z,75.20
2017-12-30T18:12:46.329Z,75.10
2017-12-30T18:15:14.954Z,75.40
2017-12-30T18:17:42.846Z,75.20
2017-12-30T18:20:10.673Z,75.60
2017-12-30T18:22:39.745Z,75.60
2017-12-30T18:25:08.388Z,75.20
2017-12-30T18:27:36.175Z,75.20
2017-12-30T18:30:04.019Z,75.20
2017-12-30T18:32:31.906Z,75.20
2017-12-30T18:34:59.829Z,75.10
2017-12-30T18:37:28.508Z,74.90
2017-12-30T18:39:56.367Z,74.90
2017-12-30T18:42:24.242Z,74.60
2017-12-30T18:44:52.093Z,74.60
2017-12-30T18:47:19.908Z,74.50
2017-12-30T18:49:47.737Z,74.30
2017-12-30T18:52:15.608Z,74.00
2017-12-30T18:54:43.459Z,74.70
2017-12-30T18:57:11.296Z,74.00
2017-12-30T18:59:39.947Z,73.40
2017-12-30T19:02:07.804Z,73.40
2017-12-30T19:04:35.629Z,73.50
2017-12-30T19:07:04.207Z,73.20
2017-12-30T19:09:32.836Z,73.00
2017-12-30T19:12:00.678Z,73.00
2017-12-30T19:14:28.516Z,73.40
2017-12-30T19:16:57.075Z,73.20
2017-12-30T19:19:24.900Z,73.20
2017-12-30T19:21:52.724Z,73.70
2017-12-30T19:24:21.388Z,74.30
2017-12-30T19:26:49.339Z,74.30
2017-12-30T19:29:17.209Z,75.00
2017-12-30T19:31:45.032Z,74.60
2017-12-30T19:34:12.877Z,74.70
2017-12-30T19:36:41.467Z,74.70
2017-12-30T19:39:10.264Z,74.60
2017-12-30T19:41:38.144Z,74.70
2017-12-30T19:44:05.924Z,74.70
2017-12-30T19:46:33.802Z,74.70
2017-12-30T19:49:01.592Z,74.90
2017-12-30T19:51:29.406Z,74.80
2017-12-30T19:53:59.275Z,74.80
2017-12-30T19:56:27.142Z,75.00
2017-12-30T19:58:55.704Z,75.00
2017-12-30T20:01:23.514Z,74.90
2017-12-30T20:03:52.226Z,75.20
2017-12-30T20:06:20.065Z,75.20
2017-12-30T20:08:48.698Z,75.20
2017-12-30T20:11:16.543Z,75.20
2017-12-30T20:13:44.364Z,74.80
2017-12-30T20:16:12.921Z,74.50
2017-12-30T20:18:40.809Z,74.50
2017-12-30T20:21:08.788Z,75.60
2017-12-30T20:23:37.747Z,74.70
2017-12-30T20:26:05.661Z,74.70
2017-12-30T20:28:33.638Z,74.90
2017-12-30T20:31:01.465Z,74.90
2017-12-30T20:33:29.327Z,75.00
2017-12-30T20:35:57.181Z,75.00
2017-12-30T20:38:25.004Z,75.00
2017-12-30T20:40:52.898Z,74.80
2017-12-30T20:43:20.742Z,74.80
2017-12-30T20:45:48.548Z,75.40
2017-12-30T20:48:16.410Z,75.10
2017-12-30T20:50:44.246Z,74.90
2017-12-30T20:53:12.034Z,74.40
2017-12-30T20:55:39.838Z,74.20
2017-12-30T20:58:07.651Z,74.30
2017-12-30T21:00:35.436Z,74.40
2017-12-30T21:03:03.263Z,74.70
2017-12-30T21:05:31.109Z,74.60
2017-12-30T21:07:59.028Z,74.70
2017-12-30T21:10:26.873Z,74.70
2017-12-30T21:12:54.850Z,74.80
2017-12-30T21:15:22.702Z,74.80
2017-12-30T21:17:50.509Z,74.90
2017-12-30T21:20:18.299Z,75.00
2017-12-30T21:22:47.002Z,74.70
2017-12-30T21:25:14.808Z,74.60
2017-12-30T21:27:42.649Z,74.50
2017-12-30T21:30:10.540Z,74.20
2017-12-30T21:32:38.430Z,74.40
2017-12-30T21:35:06.244Z,74.40
2017-12-30T21:37:34.134Z,74.60
2017-12-30T21:40:02.120Z,74.70
2017-12-30T21:42:30.246Z,74.40
2017-12-30T21:44:58.285Z,73.90
2017-12-30T21:47:26.403Z,73.60
2017-12-30T21:49:55.208Z,73.80
2017-12-30T21:52:23.238Z,73.70
2017-12-30T21:54:51.117Z,73.80
2017-12-30T21:57:19.034Z,73.80
2017-12-30T21:59:47.710Z,74.30
2017-12-30T22:02:15.755Z,74.30
2017-12-30T22:04:44.716Z,74.30
2017-12-30T22:07:13.128Z,74.30
2017-12-30T22:09:41.128Z,74.40
2017-12-30T22:12:09.111Z,74.40
2017-12-30T22:14:38.045Z,73.70
2017-12-30T22:17:07.088Z,73.70
2017-12-30T22:19:36.024Z,74.00
2017-12-30T22:22:04.050Z,74.00
2017-12-30T22:24:32.847Z,73.80
2017-12-30T22:27:00.956Z,73.80
2017-12-30T22:29:29.228Z,73.90
2017-12-30T22:31:58.058Z,73.90
2017-12-30T22:34:26.280Z,74.10
2017-12-30T22:36:54.293Z,74.00
2017-12-30T22:39:27.085Z,74.20
2017-12-30T22:41:55.076Z,73.80
2017-12-30T22:44:24.058Z,74.10
2017-12-30T22:46:52.193Z,74.50
2017-12-30T22:49:20.276Z,75.00
2017-12-30T22:51:48.373Z,75.20
2017-12-30T22:54:17.058Z,74.90
2017-12-30T22:56:44.973Z,74.90
2017-12-30T22:59:12.819Z,75.30
2017-12-30T23:01:41.420Z,75.50
2017-12-30T23:04:19.441Z,75.40
2017-12-30T23:06:50.665Z,75.30
2017-12-30T23:09:18.901Z,75.30
2017-12-30T23:11:46.779Z,75.50
2017-12-30T23:14:14.626Z,75.40
2017-12-30T23:16:42.487Z,75.20
2017-12-30T23:19:10.339Z,75.60
2017-12-30T23:21:38.227Z,76.00
2017-12-30T23:24:06.136Z,75.90
2017-12-30T23:26:33.993Z,75.60
2017-12-30T23:29:01.931Z,75.70
2017-12-30T23:31:29.735Z,75.80
2017-12-30T23:33:57.533Z,75.80
2017-12-30T23:36:26.562Z,75.80
2017-12-30T23:38:54.434Z,75.40
2017-12-30T23:41:22.308Z,75.30
2017-12-30T23:43:50.876Z,75.50
2017-12-30T23:46:18.673Z,75.50
2017-12-30T23:48:46.547Z,75.20
2017-12-30T23:51:14.470Z,75.10
2017-12-30T23:53:42.376Z,75.10
2017-12-30T23:56:10.203Z,75.40
2017-12-30T23:58:38.044Z,75.60
